sensor_id;sensor_type;location;lat;lon;timestamp;P1;durP1;ratioP1;P2;durP2;ratioP2
80584;SDS011;70137;56.482;9.154;2023-09-08T00:01:02;11.15;;;9.38;;
80584;SDS011;70137;56.482;9.154;2023-09-08T00:03:27;13.32;;;10.13;;
80584;SDS011;70137;56.482;9.154;2023-09-08T00:05:52;11.73;;;10.50;;
80584;SDS011;70137;56.482;9.154;2023-09-08T00:08:18;14.00;;;10.60;;
80584;SDS011;70137;56.482;9.154;2023-09-08T00:10:43;15.40;;;11.77;;
80584;SDS011;70137;56.482;9.154;2023-09-08T00:13:08;14.45;;;11.52;;
80584;SDS011;70137;56.482;9.154;2023-09-08T00:15:34;13.95;;;11.20;;
80584;SDS011;70137;56.482;9.154;2023-09-08T00:18:02;13.93;;;11.00;;
80584;SDS011;70137;56.482;9.154;2023-09-08T00:27:11;14.65;;;12.73;;
80584;SDS011;70137;56.482;9.154;2023-09-08T00:29:36;17.80;;;12.68;;
80584;SDS011;70137;56.482;9.154;2023-09-08T00:32:01;17.55;;;12.85;;
80584;SDS011;70137;56.482;9.154;2023-09-08T00:34:27;16.63;;;12.93;;
80584;SDS011;70137;56.482;9.154;2023-09-08T00:36:52;18.90;;;13.23;;
80584;SDS011;70137;56.482;9.154;2023-09-08T00:39:17;20.10;;;13.65;;
80584;SDS011;70137;56.482;9.154;2023-09-08T00:41:43;16.55;;;12.85;;
80584;SDS011;70137;56.482;9.154;2023-09-08T00:44:08;19.38;;;14.77;;
80584;SDS011;70137;56.482;9.154;2023-09-08T00:46:34;17.33;;;13.27;;
80584;SDS011;70137;56.482;9.154;2023-09-08T00:49:00;20.50;;;15.13;;
80584;SDS011;70137;56.482;9.154;2023-09-08T00:51:25;17.35;;;14.43;;
80584;SDS011;70137;56.482;9.154;2023-09-08T00:53:51;19.88;;;14.45;;
80584;SDS011;70137;56.482;9.154;2023-09-08T00:56:16;21.58;;;14.60;;
80584;SDS011;70137;56.482;9.154;2023-09-08T02:10:59;97.20;;;24.85;;
80584;SDS011;70137;56.482;9.154;2023-09-08T02:13:24;43.83;;;19.25;;
80584;SDS011;70137;56.482;9.154;2023-09-08T02:15:49;99.78;;;25.40;;
80584;SDS011;70137;56.482;9.154;2023-09-08T02:18:15;89.07;;;24.50;;
80584;SDS011;70137;56.482;9.154;2023-09-08T02:20:40;126.78;;;27.23;;
80584;SDS011;70137;56.482;9.154;2023-09-08T02:23:06;70.63;;;24.85;;
80584;SDS011;70137;56.482;9.154;2023-09-08T02:25:32;90.00;;;25.63;;
80584;SDS011;70137;56.482;9.154;2023-09-08T02:27:57;87.43;;;24.77;;
80584;SDS011;70137;56.482;9.154;2023-09-08T02:30:23;76.82;;;25.67;;
80584;SDS011;70137;56.482;9.154;2023-09-08T02:32:48;102.93;;;27.95;;
80584;SDS011;70137;56.482;9.154;2023-09-08T02:35:13;80.22;;;26.63;;
80584;SDS011;70137;56.482;9.154;2023-09-08T02:37:39;79.65;;;26.23;;
80584;SDS011;70137;56.482;9.154;2023-09-08T02:40:05;52.25;;;22.27;;
80584;SDS011;70137;56.482;9.154;2023-09-08T02:42:31;84.05;;;26.88;;
80584;SDS011;70137;56.482;9.154;2023-09-08T02:44:57;92.43;;;27.65;;
80584;SDS011;70137;56.482;9.154;2023-09-08T02:47:22;79.97;;;26.77;;
80584;SDS011;70137;56.482;9.154;2023-09-08T02:49:47;81.15;;;27.67;;
80584;SDS011;70137;56.482;9.154;2023-09-08T02:52:12;77.03;;;26.77;;
80584;SDS011;70137;56.482;9.154;2023-09-08T02:54:38;43.05;;;21.17;;
80584;SDS011;70137;56.482;9.154;2023-09-08T02:57:04;51.05;;;25.58;;
80584;SDS011;70137;56.482;9.154;2023-09-08T02:59:29;58.22;;;25.27;;
80584;SDS011;70137;56.482;9.154;2023-09-08T03:01:55;35.97;;;22.90;;
80584;SDS011;70137;56.482;9.154;2023-09-08T03:04:20;62.28;;;25.65;;
80584;SDS011;70137;56.482;9.154;2023-09-08T03:06:45;44.67;;;22.67;;
80584;SDS011;70137;56.482;9.154;2023-09-08T03:09:10;46.75;;;25.48;;
80584;SDS011;70137;56.482;9.154;2023-09-08T03:11:36;48.75;;;24.48;;
80584;SDS011;70137;56.482;9.154;2023-09-08T03:14:02;50.30;;;26.17;;
80584;SDS011;70137;56.482;9.154;2023-09-08T03:16:27;47.92;;;24.27;;
80584;SDS011;70137;56.482;9.154;2023-09-08T03:18:53;35.97;;;21.95;;
80584;SDS011;70137;56.482;9.154;2023-09-08T03:21:18;45.30;;;23.23;;
80584;SDS011;70137;56.482;9.154;2023-09-08T03:23:43;56.95;;;27.50;;
80584;SDS011;70137;56.482;9.154;2023-09-08T03:26:10;62.35;;;26.02;;
80584;SDS011;70137;56.482;9.154;2023-09-08T03:28:36;61.60;;;26.08;;
80584;SDS011;70137;56.482;9.154;2023-09-08T03:31:03;44.58;;;25.60;;
80584;SDS011;70137;56.482;9.154;2023-09-08T03:33:29;55.47;;;26.45;;
80584;SDS011;70137;56.482;9.154;2023-09-08T03:35:55;52.50;;;25.02;;
80584;SDS011;70137;56.482;9.154;2023-09-08T03:38:20;49.25;;;24.27;;
80584;SDS011;70137;56.482;9.154;2023-09-08T03:40:46;42.17;;;22.50;;
80584;SDS011;70137;56.482;9.154;2023-09-08T03:43:12;48.35;;;24.77;;
80584;SDS011;70137;56.482;9.154;2023-09-08T03:45:37;52.80;;;26.55;;
80584;SDS011;70137;56.482;9.154;2023-09-08T03:48:02;44.03;;;25.63;;
80584;SDS011;70137;56.482;9.154;2023-09-08T03:50:28;42.65;;;23.70;;
80584;SDS011;70137;56.482;9.154;2023-09-08T03:52:54;33.08;;;21.73;;
80584;SDS011;70137;56.482;9.154;2023-09-08T03:55:20;55.70;;;25.80;;
80584;SDS011;70137;56.482;9.154;2023-09-08T03:57:45;40.08;;;22.25;;
80584;SDS011;70137;56.482;9.154;2023-09-08T04:00:11;48.15;;;24.88;;
80584;SDS011;70137;56.482;9.154;2023-09-08T04:02:37;39.22;;;23.42;;
80584;SDS011;70137;56.482;9.154;2023-09-08T04:05:02;40.30;;;23.67;;
80584;SDS011;70137;56.482;9.154;2023-09-08T04:07:28;47.72;;;22.67;;
80584;SDS011;70137;56.482;9.154;2023-09-08T04:09:53;56.30;;;24.23;;
80584;SDS011;70137;56.482;9.154;2023-09-08T04:12:18;49.40;;;24.80;;
80584;SDS011;70137;56.482;9.154;2023-09-08T04:14:45;46.95;;;25.50;;
80584;SDS011;70137;56.482;9.154;2023-09-08T04:17:10;50.25;;;24.70;;
80584;SDS011;70137;56.482;9.154;2023-09-08T04:19:36;59.92;;;25.20;;
80584;SDS011;70137;56.482;9.154;2023-09-08T04:22:01;53.30;;;24.70;;
80584;SDS011;70137;56.482;9.154;2023-09-08T04:24:26;42.88;;;23.60;;
80584;SDS011;70137;56.482;9.154;2023-09-08T04:26:52;57.85;;;26.50;;
80584;SDS011;70137;56.482;9.154;2023-09-08T04:29:18;45.80;;;24.50;;
80584;SDS011;70137;56.482;9.154;2023-09-08T04:31:44;55.80;;;26.55;;
80584;SDS011;70137;56.482;9.154;2023-09-08T04:34:09;49.17;;;24.80;;
80584;SDS011;70137;56.482;9.154;2023-09-08T04:36:37;53.90;;;26.23;;
80584;SDS011;70137;56.482;9.154;2023-09-08T04:39:03;63.80;;;26.02;;
80584;SDS011;70137;56.482;9.154;2023-09-08T04:41:28;47.28;;;25.10;;
80584;SDS011;70137;56.482;9.154;2023-09-08T04:43:53;49.05;;;24.63;;
80584;SDS011;70137;56.482;9.154;2023-09-08T04:46:20;48.28;;;22.73;;
80584;SDS011;70137;56.482;9.154;2023-09-08T04:48:45;49.10;;;25.83;;
80584;SDS011;70137;56.482;9.154;2023-09-08T04:51:10;39.95;;;22.63;;
80584;SDS011;70137;56.482;9.154;2023-09-08T04:53:36;63.17;;;26.02;;
80584;SDS011;70137;56.482;9.154;2023-09-08T04:56:01;58.55;;;25.45;;
80584;SDS011;70137;56.482;9.154;2023-09-08T04:58:27;47.88;;;25.08;;
80584;SDS011;70137;56.482;9.154;2023-09-08T05:00:52;39.95;;;21.85;;
80584;SDS011;70137;56.482;9.154;2023-09-08T05:03:18;51.33;;;24.60;;
80584;SDS011;70137;56.482;9.154;2023-09-08T05:05:44;46.80;;;24.00;;
80584;SDS011;70137;56.482;9.154;2023-09-08T05:08:09;51.55;;;24.40;;
80584;SDS011;70137;56.482;9.154;2023-09-08T05:10:35;62.45;;;25.42;;
80584;SDS011;70137;56.482;9.154;2023-09-08T05:13:00;58.65;;;25.75;;
80584;SDS011;70137;56.482;9.154;2023-09-08T05:15:25;70.47;;;26.13;;
80584;SDS011;70137;56.482;9.154;2023-09-08T05:17:51;58.15;;;25.20;;
80584;SDS011;70137;56.482;9.154;2023-09-08T05:20:16;51.95;;;24.65;;
80584;SDS011;70137;56.482;9.154;2023-09-08T05:22:41;48.97;;;24.25;;
80584;SDS011;70137;56.482;9.154;2023-09-08T05:25:07;72.93;;;27.80;;
80584;SDS011;70137;56.482;9.154;2023-09-08T05:27:32;61.58;;;26.05;;
80584;SDS011;70137;56.482;9.154;2023-09-08T05:29:58;47.33;;;24.27;;
80584;SDS011;70137;56.482;9.154;2023-09-08T05:32:23;53.75;;;25.33;;
80584;SDS011;70137;56.482;9.154;2023-09-08T05:34:49;37.45;;;21.92;;
80584;SDS011;70137;56.482;9.154;2023-09-08T05:37:14;61.47;;;27.13;;
80584;SDS011;70137;56.482;9.154;2023-09-08T05:39:39;42.58;;;25.15;;
80584;SDS011;70137;56.482;9.154;2023-09-08T05:42:06;43.60;;;23.40;;
80584;SDS011;70137;56.482;9.154;2023-09-08T05:44:31;46.45;;;24.95;;
80584;SDS011;70137;56.482;9.154;2023-09-08T05:46:56;50.17;;;26.05;;
80584;SDS011;70137;56.482;9.154;2023-09-08T05:49:22;42.30;;;23.67;;
80584;SDS011;70137;56.482;9.154;2023-09-08T05:51:48;42.95;;;23.27;;
80584;SDS011;70137;56.482;9.154;2023-09-08T05:54:13;57.17;;;26.75;;
80584;SDS011;70137;56.482;9.154;2023-09-08T05:56:38;47.55;;;25.05;;
80584;SDS011;70137;56.482;9.154;2023-09-08T05:59:04;47.70;;;25.05;;
80584;SDS011;70137;56.482;9.154;2023-09-08T06:01:30;49.92;;;25.67;;
80584;SDS011;70137;56.482;9.154;2023-09-08T06:03:56;47.05;;;24.80;;
80584;SDS011;70137;56.482;9.154;2023-09-08T06:06:21;52.20;;;25.00;;
80584;SDS011;70137;56.482;9.154;2023-09-08T06:08:47;52.45;;;26.42;;
80584;SDS011;70137;56.482;9.154;2023-09-08T06:11:13;44.03;;;24.17;;
80584;SDS011;70137;56.482;9.154;2023-09-08T06:13:38;49.20;;;25.55;;
80584;SDS011;70137;56.482;9.154;2023-09-08T06:16:04;47.83;;;24.58;;
80584;SDS011;70137;56.482;9.154;2023-09-08T06:18:29;44.95;;;24.65;;
80584;SDS011;70137;56.482;9.154;2023-09-08T06:20:59;51.30;;;25.33;;
80584;SDS011;70137;56.482;9.154;2023-09-08T06:23:24;53.53;;;27.27;;
80584;SDS011;70137;56.482;9.154;2023-09-08T06:25:49;42.67;;;24.25;;
80584;SDS011;70137;56.482;9.154;2023-09-08T06:28:15;47.75;;;26.17;;
80584;SDS011;70137;56.482;9.154;2023-09-08T06:30:40;52.00;;;26.67;;
80584;SDS011;70137;56.482;9.154;2023-09-08T06:33:07;46.63;;;25.08;;
80584;SDS011;70137;56.482;9.154;2023-09-08T06:35:33;52.35;;;26.65;;
80584;SDS011;70137;56.482;9.154;2023-09-08T06:37:59;46.40;;;25.33;;
80584;SDS011;70137;56.482;9.154;2023-09-08T06:40:24;48.83;;;25.52;;
80584;SDS011;70137;56.482;9.154;2023-09-08T06:42:50;54.60;;;26.65;;
80584;SDS011;70137;56.482;9.154;2023-09-08T06:45:15;46.40;;;25.40;;
80584;SDS011;70137;56.482;9.154;2023-09-08T06:47:40;49.08;;;26.08;;
80584;SDS011;70137;56.482;9.154;2023-09-08T06:50:06;47.33;;;25.35;;
80584;SDS011;70137;56.482;9.154;2023-09-08T06:52:32;47.55;;;24.85;;
80584;SDS011;70137;56.482;9.154;2023-09-08T06:54:57;47.17;;;25.98;;
80584;SDS011;70137;56.482;9.154;2023-09-08T06:57:22;43.60;;;24.15;;
80584;SDS011;70137;56.482;9.154;2023-09-08T06:59:48;42.90;;;23.67;;
80584;SDS011;70137;56.482;9.154;2023-09-08T07:02:13;48.67;;;24.70;;
80584;SDS011;70137;56.482;9.154;2023-09-08T07:04:38;46.92;;;24.80;;
80584;SDS011;70137;56.482;9.154;2023-09-08T07:07:04;46.67;;;26.20;;
80584;SDS011;70137;56.482;9.154;2023-09-08T07:09:32;43.08;;;23.15;;
80584;SDS011;70137;56.482;9.154;2023-09-08T07:11:58;51.40;;;25.80;;
80584;SDS011;70137;56.482;9.154;2023-09-08T07:14:23;47.90;;;25.17;;
80584;SDS011;70137;56.482;9.154;2023-09-08T07:16:49;43.38;;;23.77;;
80584;SDS011;70137;56.482;9.154;2023-09-08T07:19:14;48.92;;;25.58;;
80584;SDS011;70137;56.482;9.154;2023-09-08T07:21:39;49.58;;;27.35;;
80584;SDS011;70137;56.482;9.154;2023-09-08T07:24:05;47.60;;;25.95;;
80584;SDS011;70137;56.482;9.154;2023-09-08T07:26:30;45.70;;;26.05;;
80584;SDS011;70137;56.482;9.154;2023-09-08T07:28:55;46.47;;;24.42;;
80584;SDS011;70137;56.482;9.154;2023-09-08T07:31:21;50.67;;;27.35;;
80584;SDS011;70137;56.482;9.154;2023-09-08T07:33:46;47.15;;;25.85;;
80584;SDS011;70137;56.482;9.154;2023-09-08T07:36:12;44.42;;;24.95;;
80584;SDS011;70137;56.482;9.154;2023-09-08T07:38:38;46.78;;;26.17;;
80584;SDS011;70137;56.482;9.154;2023-09-08T07:41:04;47.00;;;25.77;;
80584;SDS011;70137;56.482;9.154;2023-09-08T07:43:29;48.95;;;27.77;;
80584;SDS011;70137;56.482;9.154;2023-09-08T07:45:54;53.60;;;28.40;;
80584;SDS011;70137;56.482;9.154;2023-09-08T07:48:20;43.58;;;25.30;;
80584;SDS011;70137;56.482;9.154;2023-09-08T07:50:45;44.67;;;26.10;;
80584;SDS011;70137;56.482;9.154;2023-09-08T07:53:10;40.13;;;24.05;;
80584;SDS011;70137;56.482;9.154;2023-09-08T07:55:36;44.90;;;25.80;;
80584;SDS011;70137;56.482;9.154;2023-09-08T07:58:01;49.95;;;27.48;;
80584;SDS011;70137;56.482;9.154;2023-09-08T08:00:28;45.42;;;27.20;;
80584;SDS011;70137;56.482;9.154;2023-09-08T08:02:54;48.63;;;27.05;;
80584;SDS011;70137;56.482;9.154;2023-09-08T08:05:20;47.28;;;26.30;;
80584;SDS011;70137;56.482;9.154;2023-09-08T08:07:46;44.22;;;25.60;;
80584;SDS011;70137;56.482;9.154;2023-09-08T08:10:11;42.33;;;24.85;;
80584;SDS011;70137;56.482;9.154;2023-09-08T08:12:38;36.67;;;24.02;;
80584;SDS011;70137;56.482;9.154;2023-09-08T08:15:04;42.80;;;25.90;;
80584;SDS011;70137;56.482;9.154;2023-09-08T08:17:30;43.67;;;26.20;;
80584;SDS011;70137;56.482;9.154;2023-09-08T08:19:56;38.75;;;24.33;;
80584;SDS011;70137;56.482;9.154;2023-09-08T08:22:31;37.40;;;25.08;;
80584;SDS011;70137;56.482;9.154;2023-09-08T08:24:56;38.28;;;24.65;;
80584;SDS011;70137;56.482;9.154;2023-09-08T08:27:21;39.38;;;25.80;;
80584;SDS011;70137;56.482;9.154;2023-09-08T08:29:47;38.65;;;24.02;;
80584;SDS011;70137;56.482;9.154;2023-09-08T08:32:12;40.85;;;25.10;;
80584;SDS011;70137;56.482;9.154;2023-09-08T08:34:38;36.72;;;23.08;;
80584;SDS011;70137;56.482;9.154;2023-09-08T08:37:03;34.50;;;23.65;;
80584;SDS011;70137;56.482;9.154;2023-09-08T08:39:29;40.25;;;25.10;;
80584;SDS011;70137;56.482;9.154;2023-09-08T08:41:54;37.25;;;25.10;;
80584;SDS011;70137;56.482;9.154;2023-09-08T08:44:20;36.15;;;22.98;;
80584;SDS011;70137;56.482;9.154;2023-09-08T08:46:46;33.90;;;22.80;;
80584;SDS011;70137;56.482;9.154;2023-09-08T08:49:12;31.70;;;22.52;;
80584;SDS011;70137;56.482;9.154;2023-09-08T08:51:40;30.15;;;22.48;;
80584;SDS011;70137;56.482;9.154;2023-09-08T08:54:09;28.85;;;21.25;;
80584;SDS011;70137;56.482;9.154;2023-09-08T08:56:36;31.10;;;22.42;;
80584;SDS011;70137;56.482;9.154;2023-09-08T08:59:01;27.88;;;20.42;;
80584;SDS011;70137;56.482;9.154;2023-09-08T09:01:28;28.52;;;20.75;;
80584;SDS011;70137;56.482;9.154;2023-09-08T09:03:54;27.58;;;18.48;;
80584;SDS011;70137;56.482;9.154;2023-09-08T09:06:20;29.83;;;21.20;;
80584;SDS011;70137;56.482;9.154;2023-09-08T09:08:46;26.45;;;18.63;;
80584;SDS011;70137;56.482;9.154;2023-09-08T09:11:11;26.27;;;18.02;;
80584;SDS011;70137;56.482;9.154;2023-09-08T09:13:37;29.55;;;20.63;;
80584;SDS011;70137;56.482;9.154;2023-09-08T09:16:03;26.25;;;18.52;;
80584;SDS011;70137;56.482;9.154;2023-09-08T09:18:29;25.42;;;18.80;;
80584;SDS011;70137;56.482;9.154;2023-09-08T09:20:57;24.10;;;16.63;;
80584;SDS011;70137;56.482;9.154;2023-09-08T09:23:28;26.38;;;19.02;;
80584;SDS011;70137;56.482;9.154;2023-09-08T09:25:54;21.75;;;16.35;;
80584;SDS011;70137;56.482;9.154;2023-09-08T09:28:19;23.27;;;17.45;;
80584;SDS011;70137;56.482;9.154;2023-09-08T09:30:48;23.33;;;17.35;;
80584;SDS011;70137;56.482;9.154;2023-09-08T09:33:16;26.05;;;17.90;;
80584;SDS011;70137;56.482;9.154;2023-09-08T09:35:42;23.55;;;16.77;;
80584;SDS011;70137;56.482;9.154;2023-09-08T09:38:09;20.48;;;15.20;;
80584;SDS011;70137;56.482;9.154;2023-09-08T09:40:35;24.65;;;18.67;;
80584;SDS011;70137;56.482;9.154;2023-09-08T09:43:00;25.17;;;17.42;;
80584;SDS011;70137;56.482;9.154;2023-09-08T09:45:26;19.58;;;15.88;;
80584;SDS011;70137;56.482;9.154;2023-09-08T09:47:51;16.42;;;12.90;;
80584;SDS011;70137;56.482;9.154;2023-09-08T09:50:27;16.60;;;13.23;;
80584;SDS011;70137;56.482;9.154;2023-09-08T09:52:58;18.90;;;12.90;;
80584;SDS011;70137;56.482;9.154;2023-09-08T09:55:25;19.10;;;14.05;;
80584;SDS011;70137;56.482;9.154;2023-09-08T09:57:53;17.30;;;13.57;;
80584;SDS011;70137;56.482;9.154;2023-09-08T10:00:22;17.50;;;12.95;;
80584;SDS011;70137;56.482;9.154;2023-09-08T10:02:49;17.55;;;13.23;;
80584;SDS011;70137;56.482;9.154;2023-09-08T10:05:15;19.77;;;15.02;;
80584;SDS011;70137;56.482;9.154;2023-09-08T10:07:41;20.17;;;14.55;;
80584;SDS011;70137;56.482;9.154;2023-09-08T10:10:07;15.93;;;11.75;;
80584;SDS011;70137;56.482;9.154;2023-09-08T10:12:34;18.33;;;12.90;;
80584;SDS011;70137;56.482;9.154;2023-09-08T10:15:02;17.33;;;13.25;;
80584;SDS011;70137;56.482;9.154;2023-09-08T10:17:28;16.08;;;11.93;;
80584;SDS011;70137;56.482;9.154;2023-09-08T10:19:56;15.68;;;12.30;;
80584;SDS011;70137;56.482;9.154;2023-09-08T10:22:26;14.98;;;11.52;;
80584;SDS011;70137;56.482;9.154;2023-09-08T10:24:56;15.27;;;11.88;;
80584;SDS011;70137;56.482;9.154;2023-09-08T10:27:25;16.52;;;13.00;;
80584;SDS011;70137;56.482;9.154;2023-09-08T10:29:51;13.23;;;10.60;;
80584;SDS011;70137;56.482;9.154;2023-09-08T10:32:18;12.63;;;10.35;;
80584;SDS011;70137;56.482;9.154;2023-09-08T10:34:45;12.48;;;10.60;;
80584;SDS011;70137;56.482;9.154;2023-09-08T10:37:22;12.65;;;11.32;;
80584;SDS011;70137;56.482;9.154;2023-09-08T10:39:54;11.40;;;9.70;;
80584;SDS011;70137;56.482;9.154;2023-09-08T10:42:20;10.63;;;8.43;;
80584;SDS011;70137;56.482;9.154;2023-09-08T10:44:57;12.77;;;9.80;;
80584;SDS011;70137;56.482;9.154;2023-09-08T10:47:26;11.43;;;8.90;;
80584;SDS011;70137;56.482;9.154;2023-09-08T10:49:59;10.68;;;8.45;;
80584;SDS011;70137;56.482;9.154;2023-09-08T10:52:25;11.75;;;8.77;;
80584;SDS011;70137;56.482;9.154;2023-09-08T10:54:51;9.80;;;7.78;;
80584;SDS011;70137;56.482;9.154;2023-09-08T10:57:18;8.75;;;7.82;;
80584;SDS011;70137;56.482;9.154;2023-09-08T10:59:53;11.10;;;8.02;;
80584;SDS011;70137;56.482;9.154;2023-09-08T11:02:37;12.68;;;8.45;;
80584;SDS011;70137;56.482;9.154;2023-09-08T11:05:04;12.38;;;8.25;;
80584;SDS011;70137;56.482;9.154;2023-09-08T11:07:34;10.13;;;7.22;;
80584;SDS011;70137;56.482;9.154;2023-09-08T11:10:00;9.02;;;7.40;;
80584;SDS011;70137;56.482;9.154;2023-09-08T11:12:27;11.65;;;7.32;;
80584;SDS011;70137;56.482;9.154;2023-09-08T11:14:52;8.52;;;7.43;;
80584;SDS011;70137;56.482;9.154;2023-09-08T11:17:18;8.10;;;7.22;;
80584;SDS011;70137;56.482;9.154;2023-09-08T11:19:47;9.13;;;7.70;;
80584;SDS011;70137;56.482;9.154;2023-09-08T11:22:13;8.52;;;6.63;;
80584;SDS011;70137;56.482;9.154;2023-09-08T11:24:41;7.82;;;7.00;;
80584;SDS011;70137;56.482;9.154;2023-09-08T11:27:07;11.32;;;7.78;;
80584;SDS011;70137;56.482;9.154;2023-09-08T11:29:33;8.13;;;7.15;;
80584;SDS011;70137;56.482;9.154;2023-09-08T11:31:58;8.43;;;7.25;;
80584;SDS011;70137;56.482;9.154;2023-09-08T11:34:24;8.48;;;6.97;;
80584;SDS011;70137;56.482;9.154;2023-09-08T11:36:49;9.07;;;7.53;;
80584;SDS011;70137;56.482;9.154;2023-09-08T11:39:15;8.93;;;7.32;;
80584;SDS011;70137;56.482;9.154;2023-09-08T11:41:40;8.95;;;7.50;;
80584;SDS011;70137;56.482;9.154;2023-09-08T11:44:06;8.05;;;7.25;;
80584;SDS011;70137;56.482;9.154;2023-09-08T11:46:32;7.55;;;6.78;;
80584;SDS011;70137;56.482;9.154;2023-09-08T11:48:57;8.23;;;6.68;;
80584;SDS011;70137;56.482;9.154;2023-09-08T11:51:23;10.00;;;6.80;;
80584;SDS011;70137;56.482;9.154;2023-09-08T11:53:49;10.02;;;6.35;;
80584;SDS011;70137;56.482;9.154;2023-09-08T11:56:14;7.70;;;5.82;;
80584;SDS011;70137;56.482;9.154;2023-09-08T11:58:40;7.25;;;6.25;;
80584;SDS011;70137;56.482;9.154;2023-09-08T12:01:07;7.65;;;6.03;;
80584;SDS011;70137;56.482;9.154;2023-09-08T12:03:32;7.50;;;6.22;;
80584;SDS011;70137;56.482;9.154;2023-09-08T12:05:58;9.98;;;6.13;;
80584;SDS011;70137;56.482;9.154;2023-09-08T12:08:25;7.15;;;6.00;;
80584;SDS011;70137;56.482;9.154;2023-09-08T12:10:53;8.00;;;6.07;;
80584;SDS011;70137;56.482;9.154;2023-09-08T12:13:22;9.50;;;6.10;;
80584;SDS011;70137;56.482;9.154;2023-09-08T12:15:48;7.53;;;6.18;;
80584;SDS011;70137;56.482;9.154;2023-09-08T12:18:14;7.57;;;6.05;;
80584;SDS011;70137;56.482;9.154;2023-09-08T12:20:40;11.73;;;6.35;;
80584;SDS011;70137;56.482;9.154;2023-09-08T12:23:14;7.95;;;6.10;;
80584;SDS011;70137;56.482;9.154;2023-09-08T12:25:48;10.05;;;5.93;;
80584;SDS011;70137;56.482;9.154;2023-09-08T12:28:16;6.85;;;5.82;;
80584;SDS011;70137;56.482;9.154;2023-09-08T12:30:42;9.00;;;5.75;;
80584;SDS011;70137;56.482;9.154;2023-09-08T12:33:08;7.82;;;6.03;;
80584;SDS011;70137;56.482;9.154;2023-09-08T12:35:35;6.88;;;5.55;;
80584;SDS011;70137;56.482;9.154;2023-09-08T12:38:02;6.68;;;5.35;;
80584;SDS011;70137;56.482;9.154;2023-09-08T12:40:29;5.50;;;5.00;;
80584;SDS011;70137;56.482;9.154;2023-09-08T12:42:56;7.15;;;5.22;;
80584;SDS011;70137;56.482;9.154;2023-09-08T12:45:23;7.38;;;5.75;;
80584;SDS011;70137;56.482;9.154;2023-09-08T12:47:51;7.70;;;5.63;;
80584;SDS011;70137;56.482;9.154;2023-09-08T12:50:17;7.45;;;5.57;;
80584;SDS011;70137;56.482;9.154;2023-09-08T12:52:43;6.63;;;5.20;;
80584;SDS011;70137;56.482;9.154;2023-09-08T12:55:09;6.53;;;5.20;;
80584;SDS011;70137;56.482;9.154;2023-09-08T12:57:35;6.25;;;5.55;;
80584;SDS011;70137;56.482;9.154;2023-09-08T13:00:01;6.15;;;5.35;;
80584;SDS011;70137;56.482;9.154;2023-09-08T13:02:28;8.45;;;5.88;;
80584;SDS011;70137;56.482;9.154;2023-09-08T13:04:53;10.53;;;6.27;;
80584;SDS011;70137;56.482;9.154;2023-09-08T13:07:20;5.45;;;4.93;;
80584;SDS011;70137;56.482;9.154;2023-09-08T13:09:45;8.27;;;5.45;;
80584;SDS011;70137;56.482;9.154;2023-09-08T13:12:10;6.40;;;4.97;;
80584;SDS011;70137;56.482;9.154;2023-09-08T13:14:38;6.88;;;4.85;;
80584;SDS011;70137;56.482;9.154;2023-09-08T13:17:03;6.40;;;5.40;;
80584;SDS011;70137;56.482;9.154;2023-09-08T13:19:29;8.05;;;5.60;;
80584;SDS011;70137;56.482;9.154;2023-09-08T13:21:54;7.25;;;4.93;;
80584;SDS011;70137;56.482;9.154;2023-09-08T13:24:20;6.22;;;4.55;;
80584;SDS011;70137;56.482;9.154;2023-09-08T13:26:47;7.20;;;4.55;;
80584;SDS011;70137;56.482;9.154;2023-09-08T13:29:13;6.57;;;4.78;;
80584;SDS011;70137;56.482;9.154;2023-09-08T13:31:38;7.30;;;4.43;;
80584;SDS011;70137;56.482;9.154;2023-09-08T13:34:03;7.95;;;4.93;;
80584;SDS011;70137;56.482;9.154;2023-09-08T13:36:29;7.03;;;4.82;;
80584;SDS011;70137;56.482;9.154;2023-09-08T13:38:55;7.07;;;4.83;;
80584;SDS011;70137;56.482;9.154;2023-09-08T13:41:20;7.13;;;5.22;;
80584;SDS011;70137;56.482;9.154;2023-09-08T13:43:45;5.93;;;5.03;;
80584;SDS011;70137;56.482;9.154;2023-09-08T13:46:12;6.35;;;5.20;;
80584;SDS011;70137;56.482;9.154;2023-09-08T13:48:37;6.10;;;5.20;;
80584;SDS011;70137;56.482;9.154;2023-09-08T13:51:02;7.33;;;5.53;;
80584;SDS011;70137;56.482;9.154;2023-09-08T13:53:28;5.38;;;4.40;;
80584;SDS011;70137;56.482;9.154;2023-09-08T13:55:55;6.28;;;4.95;;
80584;SDS011;70137;56.482;9.154;2023-09-08T13:58:21;6.03;;;4.72;;
80584;SDS011;70137;56.482;9.154;2023-09-08T14:00:46;8.70;;;5.20;;
80584;SDS011;70137;56.482;9.154;2023-09-08T14:03:14;9.13;;;5.10;;
80584;SDS011;70137;56.482;9.154;2023-09-08T14:05:39;6.15;;;4.97;;
80584;SDS011;70137;56.482;9.154;2023-09-08T14:08:05;7.00;;;5.22;;
80584;SDS011;70137;56.482;9.154;2023-09-08T14:10:30;6.22;;;5.30;;
80584;SDS011;70137;56.482;9.154;2023-09-08T14:12:55;9.50;;;5.70;;
80584;SDS011;70137;56.482;9.154;2023-09-08T14:15:21;7.10;;;5.10;;
80584;SDS011;70137;56.482;9.154;2023-09-08T14:17:46;7.15;;;5.45;;
80584;SDS011;70137;56.482;9.154;2023-09-08T14:20:11;6.50;;;5.18;;
80584;SDS011;70137;56.482;9.154;2023-09-08T14:22:37;8.90;;;5.38;;
80584;SDS011;70137;56.482;9.154;2023-09-08T14:25:03;6.07;;;5.07;;
80584;SDS011;70137;56.482;9.154;2023-09-08T14:27:29;8.15;;;5.53;;
80584;SDS011;70137;56.482;9.154;2023-09-08T14:29:55;8.27;;;5.50;;
80584;SDS011;70137;56.482;9.154;2023-09-08T14:32:20;8.20;;;5.85;;
80584;SDS011;70137;56.482;9.154;2023-09-08T14:34:45;8.15;;;5.80;;
80584;SDS011;70137;56.482;9.154;2023-09-08T14:37:11;6.30;;;5.20;;
80584;SDS011;70137;56.482;9.154;2023-09-08T14:39:36;6.63;;;5.60;;
80584;SDS011;70137;56.482;9.154;2023-09-08T14:42:01;7.73;;;5.80;;
80584;SDS011;70137;56.482;9.154;2023-09-08T14:44:27;6.80;;;5.50;;
80584;SDS011;70137;56.482;9.154;2023-09-08T14:46:52;6.85;;;5.78;;
80584;SDS011;70137;56.482;9.154;2023-09-08T14:49:18;9.63;;;6.00;;
80584;SDS011;70137;56.482;9.154;2023-09-08T14:51:43;9.00;;;5.60;;
80584;SDS011;70137;56.482;9.154;2023-09-08T14:54:08;7.32;;;6.10;;
80584;SDS011;70137;56.482;9.154;2023-09-08T14:56:33;7.53;;;5.97;;
80584;SDS011;70137;56.482;9.154;2023-09-08T14:58:59;6.70;;;5.30;;
80584;SDS011;70137;56.482;9.154;2023-09-08T15:01:24;7.13;;;6.40;;
80584;SDS011;70137;56.482;9.154;2023-09-08T15:03:50;8.55;;;6.10;;
80584;SDS011;70137;56.482;9.154;2023-09-08T15:06:16;8.07;;;6.25;;
80584;SDS011;70137;56.482;9.154;2023-09-08T15:08:44;8.43;;;6.07;;
80584;SDS011;70137;56.482;9.154;2023-09-08T15:11:11;8.43;;;6.35;;
80584;SDS011;70137;56.482;9.154;2023-09-08T15:13:38;9.27;;;6.93;;
80584;SDS011;70137;56.482;9.154;2023-09-08T15:16:03;9.35;;;5.90;;
80584;SDS011;70137;56.482;9.154;2023-09-08T15:18:29;9.73;;;6.05;;
80584;SDS011;70137;56.482;9.154;2023-09-08T15:20:55;7.35;;;5.63;;
80584;SDS011;70137;56.482;9.154;2023-09-08T15:23:21;8.57;;;6.22;;
80584;SDS011;70137;56.482;9.154;2023-09-08T15:25:50;8.95;;;6.78;;
80584;SDS011;70137;56.482;9.154;2023-09-08T15:28:20;14.73;;;8.38;;
80584;SDS011;70137;56.482;9.154;2023-09-08T15:30:53;8.40;;;6.57;;
80584;SDS011;70137;56.482;9.154;2023-09-08T15:33:19;12.00;;;6.97;;
80584;SDS011;70137;56.482;9.154;2023-09-08T15:35:45;8.00;;;6.97;;
80584;SDS011;70137;56.482;9.154;2023-09-08T15:38:11;8.90;;;6.35;;
80584;SDS011;70137;56.482;9.154;2023-09-08T15:40:54;9.43;;;6.28;;
80584;SDS011;70137;56.482;9.154;2023-09-08T15:43:30;7.45;;;6.18;;